sensor_id;sensor_type;location;lat;lon;timestamp;P1;durP1;ratioP1;P2;durP2;ratioP2
20229;SDS011;12195;55.790;37.572;2023-01-15T00:02:07;12.90;;;6.75;;
20229;SDS011;12195;55.790;37.572;2023-01-15T00:04:42;14.70;;;7.05;;
20229;SDS011;12195;55.790;37.572;2023-01-15T00:07:15;14.55;;;5.60;;
20229;SDS011;12195;55.790;37.572;2023-01-15T00:09:48;13.60;;;5.95;;
20229;SDS011;12195;55.790;37.572;2023-01-15T00:12:20;13.67;;;6.53;;
20229;SDS011;12195;55.790;37.572;2023-01-15T00:14:53;11.43;;;6.45;;
20229;SDS011;12195;55.790;37.572;2023-01-15T00:17:27;13.38;;;6.28;;
20229;SDS011;12195;55.790;37.572;2023-01-15T00:20:00;12.80;;;5.83;;
20229;SDS011;12195;55.790;37.572;2023-01-15T00:25:05;12.68;;;6.05;;
20229;SDS011;12195;55.790;37.572;2023-01-15T00:27:55;14.45;;;6.15;;
20229;SDS011;12195;55.790;37.572;2023-01-15T00:30:29;11.63;;;6.35;;
20229;SDS011;12195;55.790;37.572;2023-01-15T00:33:01;14.18;;;6.30;;
20229;SDS011;12195;55.790;37.572;2023-01-15T00:35:34;13.15;;;5.95;;
20229;SDS011;12195;55.790;37.572;2023-01-15T00:38:06;14.78;;;7.37;;
20229;SDS011;12195;55.790;37.572;2023-01-15T00:40:38;11.65;;;6.25;;
20229;SDS011;12195;55.790;37.572;2023-01-15T00:43:11;12.47;;;6.97;;
20229;SDS011;12195;55.790;37.572;2023-01-15T00:45:49;11.03;;;6.75;;
20229;SDS011;12195;55.790;37.572;2023-01-15T00:48:21;17.73;;;7.28;;
20229;SDS011;12195;55.790;37.572;2023-01-15T00:50:53;13.70;;;5.90;;
20229;SDS011;12195;55.790;37.572;2023-01-15T00:53:26;16.40;;;7.25;;
20229;SDS011;12195;55.790;37.572;2023-01-15T00:55:58;17.25;;;6.47;;
20229;SDS011;12195;55.790;37.572;2023-01-15T00:58:31;13.53;;;6.58;;
20229;SDS011;12195;55.790;37.572;2023-01-15T01:01:03;19.10;;;6.25;;
20229;SDS011;12195;55.790;37.572;2023-01-15T01:03:36;15.65;;;7.12;;
20229;SDS011;12195;55.790;37.572;2023-01-15T01:06:08;13.30;;;6.45;;
20229;SDS011;12195;55.790;37.572;2023-01-15T01:08:41;13.05;;;5.90;;
20229;SDS011;12195;55.790;37.572;2023-01-15T01:11:17;9.05;;;5.85;;
20229;SDS011;12195;55.790;37.572;2023-01-15T01:13:51;10.00;;;6.10;;
20229;SDS011;12195;55.790;37.572;2023-01-15T01:18:59;13.15;;;6.30;;
20229;SDS011;12195;55.790;37.572;2023-01-15T01:21:33;12.98;;;6.47;;
20229;SDS011;12195;55.790;37.572;2023-01-15T01:26:40;12.07;;;6.45;;
20229;SDS011;12195;55.790;37.572;2023-01-15T01:29:17;10.25;;;5.53;;
20229;SDS011;12195;55.790;37.572;2023-01-15T01:31:50;12.68;;;6.40;;
20229;SDS011;12195;55.790;37.572;2023-01-15T01:34:23;12.95;;;6.67;;
20229;SDS011;12195;55.790;37.572;2023-01-15T01:36:55;16.65;;;7.03;;
20229;SDS011;12195;55.790;37.572;2023-01-15T01:39:28;13.05;;;7.25;;
20229;SDS011;12195;55.790;37.572;2023-01-15T01:42:01;13.98;;;6.47;;
20229;SDS011;12195;55.790;37.572;2023-01-15T01:47:09;14.98;;;7.35;;
20229;SDS011;12195;55.790;37.572;2023-01-15T01:49:44;18.77;;;6.62;;
20229;SDS011;12195;55.790;37.572;2023-01-15T01:52:24;17.45;;;6.50;;
20229;SDS011;12195;55.790;37.572;2023-01-15T01:54:57;16.25;;;7.22;;
20229;SDS011;12195;55.790;37.572;2023-01-15T01:57:31;16.42;;;7.40;;
20229;SDS011;12195;55.790;37.572;2023-01-15T02:00:04;25.20;;;15.10;;
20229;SDS011;12195;55.790;37.572;2023-01-15T02:02:41;12.73;;;6.90;;
20229;SDS011;12195;55.790;37.572;2023-01-15T02:05:31;11.75;;;6.72;;
20229;SDS011;12195;55.790;37.572;2023-01-15T02:08:02;12.73;;;6.80;;
20229;SDS011;12195;55.790;37.572;2023-01-15T02:10:36;17.37;;;7.60;;
20229;SDS011;12195;55.790;37.572;2023-01-15T02:13:20;14.35;;;6.85;;
20229;SDS011;12195;55.790;37.572;2023-01-15T02:15:58;18.57;;;7.67;;
20229;SDS011;12195;55.790;37.572;2023-01-15T02:18:49;14.20;;;6.92;;
20229;SDS011;12195;55.790;37.572;2023-01-15T02:27:22;19.00;;;7.45;;
20229;SDS011;12195;55.790;37.572;2023-01-15T02:29:58;13.03;;;7.40;;
20229;SDS011;12195;55.790;37.572;2023-01-15T02:32:43;12.05;;;6.85;;
20229;SDS011;12195;55.790;37.572;2023-01-15T02:35:39;30.52;;;9.53;;
20229;SDS011;12195;55.790;37.572;2023-01-15T02:38:19;10.63;;;4.55;;
20229;SDS011;12195;55.790;37.572;2023-01-15T02:40:54;14.60;;;6.90;;
20229;SDS011;12195;55.790;37.572;2023-01-15T02:43:31;13.20;;;6.53;;
20229;SDS011;12195;55.790;37.572;2023-01-15T02:46:07;14.43;;;6.97;;
20229;SDS011;12195;55.790;37.572;2023-01-15T02:48:42;11.00;;;7.10;;
20229;SDS011;12195;55.790;37.572;2023-01-15T02:51:18;13.48;;;6.45;;
20229;SDS011;12195;55.790;37.572;2023-01-15T02:53:54;12.65;;;5.87;;
20229;SDS011;12195;55.790;37.572;2023-01-15T02:56:30;17.00;;;7.00;;
20229;SDS011;12195;55.790;37.572;2023-01-15T02:59:06;16.65;;;6.40;;
20229;SDS011;12195;55.790;37.572;2023-01-15T03:01:43;11.63;;;6.72;;
20229;SDS011;12195;55.790;37.572;2023-01-15T03:07:09;12.95;;;5.83;;
20229;SDS011;12195;55.790;37.572;2023-01-15T03:15:40;11.70;;;5.93;;
20229;SDS011;12195;55.790;37.572;2023-01-15T03:18:49;11.68;;;5.80;;
20229;SDS011;12195;55.790;37.572;2023-01-15T03:21:33;12.30;;;6.70;;
20229;SDS011;12195;55.790;37.572;2023-01-15T03:24:11;13.90;;;7.03;;
20229;SDS011;12195;55.790;37.572;2023-01-15T03:26:46;15.35;;;6.85;;
20229;SDS011;12195;55.790;37.572;2023-01-15T03:29:21;12.65;;;6.47;;
20229;SDS011;12195;55.790;37.572;2023-01-15T03:31:57;13.35;;;5.92;;
20229;SDS011;12195;55.790;37.572;2023-01-15T03:37:02;16.25;;;6.25;;
20229;SDS011;12195;55.790;37.572;2023-01-15T03:39:35;17.10;;;6.97;;
20229;SDS011;12195;55.790;37.572;2023-01-15T03:42:13;13.58;;;6.50;;
20229;SDS011;12195;55.790;37.572;2023-01-15T03:44:53;14.10;;;7.20;;
20229;SDS011;12195;55.790;37.572;2023-01-15T03:47:46;19.05;;;6.70;;
20229;SDS011;12195;55.790;37.572;2023-01-15T03:50:30;15.30;;;6.40;;
20229;SDS011;12195;55.790;37.572;2023-01-15T03:53:20;15.32;;;7.05;;
20229;SDS011;12195;55.790;37.572;2023-01-15T03:56:02;15.93;;;6.65;;
20229;SDS011;12195;55.790;37.572;2023-01-15T03:58:45;19.65;;;6.72;;
20229;SDS011;12195;55.790;37.572;2023-01-15T04:01:17;16.60;;;7.33;;
20229;SDS011;12195;55.790;37.572;2023-01-15T04:03:51;17.92;;;7.08;;
20229;SDS011;12195;55.790;37.572;2023-01-15T04:06:28;15.00;;;6.60;;
20229;SDS011;12195;55.790;37.572;2023-01-15T04:09:05;15.95;;;6.95;;
20229;SDS011;12195;55.790;37.572;2023-01-15T04:11:39;18.73;;;6.87;;
20229;SDS011;12195;55.790;37.572;2023-01-15T04:14:16;16.93;;;7.95;;
20229;SDS011;12195;55.790;37.572;2023-01-15T04:16:46;17.52;;;6.83;;
20229;SDS011;12195;55.790;37.572;2023-01-15T04:19:19;20.48;;;7.90;;
20229;SDS011;12195;55.790;37.572;2023-01-15T04:21:55;18.15;;;7.37;;
20229;SDS011;12195;55.790;37.572;2023-01-15T04:24:28;18.52;;;7.55;;
20229;SDS011;12195;55.790;37.572;2023-01-15T04:27:00;14.80;;;6.50;;
20229;SDS011;12195;55.790;37.572;2023-01-15T04:29:32;16.67;;;7.30;;
20229;SDS011;12195;55.790;37.572;2023-01-15T04:32:04;20.55;;;6.42;;
20229;SDS011;12195;55.790;37.572;2023-01-15T04:34:37;20.80;;;7.37;;
20229;SDS011;12195;55.790;37.572;2023-01-15T04:37:09;22.35;;;8.03;;
20229;SDS011;12195;55.790;37.572;2023-01-15T04:39:41;11.97;;;6.62;;
20229;SDS011;12195;55.790;37.572;2023-01-15T04:42:13;22.25;;;7.85;;
20229;SDS011;12195;55.790;37.572;2023-01-15T04:45:04;30.15;;;7.80;;
20229;SDS011;12195;55.790;37.572;2023-01-15T04:47:36;25.82;;;7.92;;
20229;SDS011;12195;55.790;37.572;2023-01-15T04:50:10;16.10;;;5.97;;
20229;SDS011;12195;55.790;37.572;2023-01-15T04:52:42;26.93;;;8.05;;
20229;SDS011;12195;55.790;37.572;2023-01-15T04:55:14;24.50;;;8.78;;
20229;SDS011;12195;55.790;37.572;2023-01-15T04:57:48;18.92;;;7.17;;
20229;SDS011;12195;55.790;37.572;2023-01-15T05:00:20;30.52;;;8.28;;
20229;SDS011;12195;55.790;37.572;2023-01-15T05:02:52;25.60;;;8.15;;
20229;SDS011;12195;55.790;37.572;2023-01-15T05:05:25;27.22;;;8.83;;
20229;SDS011;12195;55.790;37.572;2023-01-15T05:07:57;22.05;;;7.97;;
20229;SDS011;12195;55.790;37.572;2023-01-15T05:10:29;22.93;;;7.60;;
20229;SDS011;12195;55.790;37.572;2023-01-15T05:13:01;26.45;;;7.67;;
20229;SDS011;12195;55.790;37.572;2023-01-15T05:15:34;30.35;;;8.80;;
20229;SDS011;12195;55.790;37.572;2023-01-15T05:18:08;17.80;;;7.22;;
20229;SDS011;12195;55.790;37.572;2023-01-15T05:20:41;22.32;;;8.45;;
20229;SDS011;12195;55.790;37.572;2023-01-15T05:23:13;28.40;;;8.48;;
20229;SDS011;12195;55.790;37.572;2023-01-15T05:25:45;27.73;;;8.85;;
20229;SDS011;12195;55.790;37.572;2023-01-15T05:28:18;31.30;;;8.70;;
20229;SDS011;12195;55.790;37.572;2023-01-15T05:30:50;25.45;;;8.45;;
20229;SDS011;12195;55.790;37.572;2023-01-15T05:33:23;41.77;;;9.35;;
20229;SDS011;12195;55.790;37.572;2023-01-15T05:35:59;39.70;;;9.13;;
20229;SDS011;12195;55.790;37.572;2023-01-15T05:38:32;30.90;;;8.78;;
20229;SDS011;12195;55.790;37.572;2023-01-15T05:41:10;31.17;;;10.05;;
20229;SDS011;12195;55.790;37.572;2023-01-15T05:44:01;24.25;;;8.40;;
20229;SDS011;12195;55.790;37.572;2023-01-15T05:46:37;38.13;;;9.53;;
20229;SDS011;12195;55.790;37.572;2023-01-15T05:49:17;24.15;;;8.03;;
20229;SDS011;12195;55.790;37.572;2023-01-15T05:51:46;31.73;;;8.60;;
20229;SDS011;12195;55.790;37.572;2023-01-15T05:54:20;24.37;;;7.87;;
20229;SDS011;12195;55.790;37.572;2023-01-15T05:56:54;32.80;;;8.73;;
20229;SDS011;12195;55.790;37.572;2023-01-15T05:59:28;24.07;;;8.03;;
20229;SDS011;12195;55.790;37.572;2023-01-15T06:02:02;46.00;;;10.63;;
20229;SDS011;12195;55.790;37.572;2023-01-15T06:04:35;29.82;;;8.35;;
20229;SDS011;12195;55.790;37.572;2023-01-15T06:07:07;29.32;;;8.85;;
20229;SDS011;12195;55.790;37.572;2023-01-15T06:09:39;31.00;;;9.13;;
20229;SDS011;12195;55.790;37.572;2023-01-15T06:12:11;42.83;;;9.10;;
20229;SDS011;12195;55.790;37.572;2023-01-15T06:14:44;38.33;;;9.03;;
20229;SDS011;12195;55.790;37.572;2023-01-15T06:17:16;29.55;;;8.13;;
20229;SDS011;12195;55.790;37.572;2023-01-15T06:19:48;38.42;;;11.35;;
20229;SDS011;12195;55.790;37.572;2023-01-15T06:22:20;36.65;;;9.38;;
20229;SDS011;12195;55.790;37.572;2023-01-15T06:24:52;28.45;;;8.00;;
20229;SDS011;12195;55.790;37.572;2023-01-15T06:27:24;24.65;;;8.18;;
20229;SDS011;12195;55.790;37.572;2023-01-15T06:29:58;36.20;;;8.98;;
20229;SDS011;12195;55.790;37.572;2023-01-15T06:32:31;24.25;;;7.72;;
20229;SDS011;12195;55.790;37.572;2023-01-15T06:35:03;34.67;;;9.40;;
20229;SDS011;12195;55.790;37.572;2023-01-15T06:37:35;38.02;;;8.73;;
20229;SDS011;12195;55.790;37.572;2023-01-15T06:40:08;38.58;;;10.25;;
20229;SDS011;12195;55.790;37.572;2023-01-15T06:42:42;41.48;;;9.03;;
20229;SDS011;12195;55.790;37.572;2023-01-15T06:45:35;37.48;;;8.30;;
20229;SDS011;12195;55.790;37.572;2023-01-15T06:48:27;44.75;;;9.15;;
20229;SDS011;12195;55.790;37.572;2023-01-15T06:51:00;33.70;;;8.88;;
20229;SDS011;12195;55.790;37.572;2023-01-15T06:53:33;40.00;;;10.65;;
20229;SDS011;12195;55.790;37.572;2023-01-15T06:56:05;26.10;;;7.87;;
20229;SDS011;12195;55.790;37.572;2023-01-15T06:58:38;29.60;;;8.53;;
20229;SDS011;12195;55.790;37.572;2023-01-15T07:01:13;17.92;;;7.67;;
20229;SDS011;12195;55.790;37.572;2023-01-15T07:03:47;27.07;;;9.50;;
20229;SDS011;12195;55.790;37.572;2023-01-15T07:06:19;42.40;;;8.85;;
20229;SDS011;12195;55.790;37.572;2023-01-15T07:08:53;48.17;;;8.80;;
20229;SDS011;12195;55.790;37.572;2023-01-15T07:11:26;32.88;;;8.28;;
20229;SDS011;12195;55.790;37.572;2023-01-15T07:13:58;30.57;;;8.65;;
20229;SDS011;12195;55.790;37.572;2023-01-15T07:16:37;35.70;;;8.68;;
20229;SDS011;12195;55.790;37.572;2023-01-15T07:19:09;30.40;;;8.98;;
20229;SDS011;12195;55.790;37.572;2023-01-15T07:21:42;27.62;;;9.15;;
20229;SDS011;12195;55.790;37.572;2023-01-15T07:24:16;38.47;;;10.90;;
20229;SDS011;12195;55.790;37.572;2023-01-15T07:26:48;28.38;;;9.48;;
20229;SDS011;12195;55.790;37.572;2023-01-15T07:29:20;41.13;;;10.10;;
20229;SDS011;12195;55.790;37.572;2023-01-15T07:31:53;33.85;;;10.03;;
20229;SDS011;12195;55.790;37.572;2023-01-15T07:34:26;46.35;;;9.85;;
20229;SDS011;12195;55.790;37.572;2023-01-15T07:36:58;38.28;;;11.33;;
20229;SDS011;12195;55.790;37.572;2023-01-15T07:39:31;46.25;;;10.78;;
20229;SDS011;12195;55.790;37.572;2023-01-15T07:42:04;28.23;;;10.05;;
20229;SDS011;12195;55.790;37.572;2023-01-15T07:44:55;37.50;;;9.10;;
20229;SDS011;12195;55.790;37.572;2023-01-15T07:47:45;52.98;;;10.45;;
20229;SDS011;12195;55.790;37.572;2023-01-15T07:50:37;35.13;;;9.90;;
20229;SDS011;12195;55.790;37.572;2023-01-15T07:53:09;35.65;;;9.23;;
20229;SDS011;12195;55.790;37.572;2023-01-15T07:55:42;32.85;;;8.83;;
20229;SDS011;12195;55.790;37.572;2023-01-15T07:58:14;37.25;;;9.43;;
20229;SDS011;12195;55.790;37.572;2023-01-15T08:00:48;50.10;;;10.93;;
20229;SDS011;12195;55.790;37.572;2023-01-15T08:03:25;29.15;;;7.90;;
20229;SDS011;12195;55.790;37.572;2023-01-15T08:05:57;34.23;;;9.15;;
20229;SDS011;12195;55.790;37.572;2023-01-15T08:08:31;24.73;;;9.40;;
20229;SDS011;12195;55.790;37.572;2023-01-15T08:11:03;35.90;;;9.55;;
20229;SDS011;12195;55.790;37.572;2023-01-15T08:13:53;29.90;;;8.30;;
20229;SDS011;12195;55.790;37.572;2023-01-15T08:16:43;23.87;;;9.30;;
20229;SDS011;12195;55.790;37.572;2023-01-15T08:19:16;33.25;;;9.20;;
20229;SDS011;12195;55.790;37.572;2023-01-15T08:21:50;42.10;;;10.70;;
20229;SDS011;12195;55.790;37.572;2023-01-15T08:24:22;35.58;;;9.08;;
20229;SDS011;12195;55.790;37.572;2023-01-15T08:26:55;35.88;;;9.25;;
20229;SDS011;12195;55.790;37.572;2023-01-15T08:29:27;33.67;;;9.50;;
20229;SDS011;12195;55.790;37.572;2023-01-15T08:32:00;46.63;;;10.20;;
20229;SDS011;12195;55.790;37.572;2023-01-15T08:34:32;25.48;;;9.63;;
20229;SDS011;12195;55.790;37.572;2023-01-15T08:37:05;51.90;;;12.65;;
20229;SDS011;12195;55.790;37.572;2023-01-15T08:39:38;36.73;;;10.58;;
20229;SDS011;12195;55.790;37.572;2023-01-15T08:42:11;30.35;;;9.13;;
20229;SDS011;12195;55.790;37.572;2023-01-15T08:44:43;28.77;;;10.48;;
20229;SDS011;12195;55.790;37.572;2023-01-15T08:47:16;34.38;;;10.25;;
20229;SDS011;12195;55.790;37.572;2023-01-15T08:49:48;23.35;;;9.90;;
20229;SDS011;12195;55.790;37.572;2023-01-15T08:52:24;27.45;;;9.40;;
20229;SDS011;12195;55.790;37.572;2023-01-15T08:55:07;24.98;;;8.98;;
20229;SDS011;12195;55.790;37.572;2023-01-15T08:57:42;30.85;;;9.93;;
20229;SDS011;12195;55.790;37.572;2023-01-15T09:00:14;20.27;;;8.45;;
20229;SDS011;12195;55.790;37.572;2023-01-15T09:02:47;15.87;;;6.77;;
20229;SDS011;12195;55.790;37.572;2023-01-15T09:05:20;27.65;;;9.48;;
20229;SDS011;12195;55.790;37.572;2023-01-15T09:07:53;27.73;;;8.35;;
20229;SDS011;12195;55.790;37.572;2023-01-15T09:10:28;20.17;;;8.40;;
20229;SDS011;12195;55.790;37.572;2023-01-15T09:13:00;27.80;;;9.35;;
20229;SDS011;12195;55.790;37.572;2023-01-15T09:15:34;31.02;;;10.50;;
20229;SDS011;12195;55.790;37.572;2023-01-15T09:20:42;34.75;;;8.45;;
20229;SDS011;12195;55.790;37.572;2023-01-15T09:23:21;31.65;;;10.10;;
20229;SDS011;12195;55.790;37.572;2023-01-15T09:26:00;20.45;;;8.28;;
20229;SDS011;12195;55.790;37.572;2023-01-15T09:28:37;25.68;;;9.05;;
20229;SDS011;12195;55.790;37.572;2023-01-15T09:31:09;29.40;;;8.90;;
20229;SDS011;12195;55.790;37.572;2023-01-15T09:33:42;15.75;;;9.18;;
20229;SDS011;12195;55.790;37.572;2023-01-15T09:36:17;23.25;;;9.15;;
20229;SDS011;12195;55.790;37.572;2023-01-15T09:53:33;23.62;;;9.05;;
20229;SDS011;12195;55.790;37.572;2023-01-15T09:56:05;18.10;;;8.45;;
20229;SDS011;12195;55.790;37.572;2023-01-15T09:58:40;24.40;;;8.45;;
20229;SDS011;12195;55.790;37.572;2023-01-15T10:01:14;23.67;;;6.37;;
20229;SDS011;12195;55.790;37.572;2023-01-15T10:04:02;20.30;;;8.98;;
20229;SDS011;12195;55.790;37.572;2023-01-15T10:06:47;23.52;;;9.85;;
20229;SDS011;12195;55.790;37.572;2023-01-15T10:12:15;21.05;;;8.38;;
20229;SDS011;12195;55.790;37.572;2023-01-15T10:18:02;20.90;;;8.63;;
20229;SDS011;12195;55.790;37.572;2023-01-15T10:23:55;21.80;;;8.58;;
20229;SDS011;12195;55.790;37.572;2023-01-15T10:26:43;21.25;;;8.43;;
20229;SDS011;12195;55.790;37.572;2023-01-15T10:32:29;24.40;;;7.92;;
20229;SDS011;12195;55.790;37.572;2023-01-15T10:38:42;25.02;;;6.78;;
20229;SDS011;12195;55.790;37.572;2023-01-15T10:41:44;23.92;;;8.53;;
20229;SDS011;12195;55.790;37.572;2023-01-15T10:44:41;20.80;;;7.83;;
20229;SDS011;12195;55.790;37.572;2023-01-15T10:47:13;20.30;;;7.30;;
20229;SDS011;12195;55.790;37.572;2023-01-15T10:49:48;22.48;;;7.87;;
20229;SDS011;12195;55.790;37.572;2023-01-15T10:52:26;23.57;;;8.05;;
20229;SDS011;12195;55.790;37.572;2023-01-15T10:55:05;20.57;;;7.22;;
20229;SDS011;12195;55.790;37.572;2023-01-15T10:57:48;22.07;;;7.28;;
20229;SDS011;12195;55.790;37.572;2023-01-15T11:00:44;28.40;;;8.00;;
20229;SDS011;12195;55.790;37.572;2023-01-15T11:03:21;21.20;;;7.58;;
20229;SDS011;12195;55.790;37.572;2023-01-15T11:05:55;17.73;;;6.87;;
20229;SDS011;12195;55.790;37.572;2023-01-15T11:08:31;15.55;;;6.47;;
20229;SDS011;12195;55.790;37.572;2023-01-15T11:11:13;16.90;;;6.08;;
20229;SDS011;12195;55.790;37.572;2023-01-15T11:13:54;17.85;;;6.03;;
20229;SDS011;12195;55.790;37.572;2023-01-15T11:16:45;15.53;;;6.03;;
20229;SDS011;12195;55.790;37.572;2023-01-15T11:19:39;12.90;;;5.80;;
20229;SDS011;12195;55.790;37.572;2023-01-15T11:22:17;16.42;;;5.85;;
20229;SDS011;12195;55.790;37.572;2023-01-15T11:24:53;22.60;;;7.47;;
20229;SDS011;12195;55.790;37.572;2023-01-15T11:27:30;19.10;;;6.53;;
20229;SDS011;12195;55.790;37.572;2023-01-15T11:30:24;11.75;;;6.30;;
20229;SDS011;12195;55.790;37.572;2023-01-15T11:33:26;34.15;;;8.95;;
20229;SDS011;12195;55.790;37.572;2023-01-15T11:36:07;19.85;;;6.95;;
20229;SDS011;12195;55.790;37.572;2023-01-15T11:38:43;17.70;;;6.67;;
20229;SDS011;12195;55.790;37.572;2023-01-15T11:41:33;12.23;;;6.20;;
20229;SDS011;12195;55.790;37.572;2023-01-15T11:44:23;15.90;;;5.60;;
20229;SDS011;12195;55.790;37.572;2023-01-15T11:47:16;27.07;;;6.40;;
20229;SDS011;12195;55.790;37.572;2023-01-15T11:50:24;17.42;;;6.80;;
20229;SDS011;12195;55.790;37.572;2023-01-15T11:53:06;13.08;;;7.42;;
20229;SDS011;12195;55.790;37.572;2023-01-15T11:55:43;23.87;;;6.35;;
20229;SDS011;12195;55.790;37.572;2023-01-15T11:58:22;11.18;;;4.47;;
20229;SDS011;12195;55.790;37.572;2023-01-15T12:00:54;10.82;;;4.22;;
20229;SDS011;12195;55.790;37.572;2023-01-15T12:06:04;11.60;;;5.17;;
20229;SDS011;12195;55.790;37.572;2023-01-15T12:08:41;14.43;;;5.17;;
20229;SDS011;12195;55.790;37.572;2023-01-15T12:11:25;15.23;;;5.20;;
20229;SDS011;12195;55.790;37.572;2023-01-15T12:14:20;14.70;;;5.25;;
20229;SDS011;12195;55.790;37.572;2023-01-15T12:26:15;11.05;;;4.85;;
20229;SDS011;12195;55.790;37.572;2023-01-15T12:28:30;18.98;;;5.30;;
20229;SDS011;12195;55.790;37.572;2023-01-15T12:31:05;11.43;;;4.67;;
20229;SDS011;12195;55.790;37.572;2023-01-15T12:33:52;19.02;;;5.25;;
20229;SDS011;12195;55.790;37.572;2023-01-15T12:36:40;7.40;;;3.83;;
20229;SDS011;12195;55.790;37.572;2023-01-15T12:41:57;12.58;;;4.20;;
20229;SDS011;12195;55.790;37.572;2023-01-15T12:44:51;12.98;;;4.97;;
20229;SDS011;12195;55.790;37.572;2023-01-15T13:01:39;16.00;;;4.50;;
20229;SDS011;12195;55.790;37.572;2023-01-15T13:07:17;11.48;;;4.83;;
20229;SDS011;12195;55.790;37.572;2023-01-15T13:10:15;9.25;;;4.33;;
20229;SDS011;12195;55.790;37.572;2023-01-15T13:12:50;13.10;;;6.00;;
20229;SDS011;12195;55.790;37.572;2023-01-15T13:15:25;11.95;;;4.25;;
20229;SDS011;12195;55.790;37.572;2023-01-15T13:26:22;12.90;;;4.78;;
20229;SDS011;12195;55.790;37.572;2023-01-15T13:32:10;11.68;;;4.60;;
20229;SDS011;12195;55.790;37.572;2023-01-15T13:37:18;11.25;;;4.50;;
20229;SDS011;12195;55.790;37.572;2023-01-15T13:39:54;8.20;;;3.70;;
20229;SDS011;12195;55.790;37.572;2023-01-15T13:42:28;8.00;;;4.12;;
20229;SDS011;12195;55.790;37.572;2023-01-15T13:45:50;9.88;;;4.28;;
20229;SDS011;12195;55.790;37.572;2023-01-15T13:47:42;11.70;;;4.00;;
20229;SDS011;12195;55.790;37.572;2023-01-15T13:50:29;14.30;;;4.20;;
20229;SDS011;12195;55.790;37.572;2023-01-15T13:53:02;7.28;;;3.87;;
20229;SDS011;12195;55.790;37.572;2023-01-15T13:58:23;13.70;;;4.28;;
20229;SDS011;12195;55.790;37.572;2023-01-15T14:01:04;7.90;;;3.50;;
20229;SDS011;12195;55.790;37.572;2023-01-15T14:03:38;7.10;;;3.80;;
20229;SDS011;12195;55.790;37.572;2023-01-15T14:06:10;8.05;;;3.70;;
20229;SDS011;12195;55.790;37.572;2023-01-15T14:08:43;12.00;;;4.15;;
20229;SDS011;12195;55.790;37.572;2023-01-15T14:14:26;10.82;;;4.10;;
20229;SDS011;12195;55.790;37.572;2023-01-15T14:20:37;9.05;;;3.80;;
20229;SDS011;12195;55.790;37.572;2023-01-15T14:23:42;9.90;;;4.08;;
20229;SDS011;12195;55.790;37.572;2023-01-15T14:26:28;9.23;;;4.12;;
20229;SDS011;12195;55.790;37.572;2023-01-15T14:34:36;8.33;;;4.35;;
20229;SDS011;12195;55.790;37.572;2023-01-15T14:40:00;11.85;;;4.70;;
20229;SDS011;12195;55.790;37.572;2023-01-15T14:42:34;8.13;;;4.45;;
20229;SDS011;12195;55.790;37.572;2023-01-15T14:45:28;12.68;;;4.62;;
20229;SDS011;12195;55.790;37.572;2023-01-15T14:48:35;10.05;;;4.22;;
20229;SDS011;12195;55.790;37.572;2023-01-15T14:53:57;11.93;;;4.80;;
20229;SDS011;12195;55.790;37.572;2023-01-15T14:56:28;14.83;;;5.20;;
20229;SDS011;12195;55.790;37.572;2023-01-15T14:59:19;12.33;;;5.65;;
20229;SDS011;12195;55.790;37.572;2023-01-15T15:01:56;11.97;;;4.60;;
20229;SDS011;12195;55.790;37.572;2023-01-15T15:04:43;8.95;;;4.58;;
20229;SDS011;12195;55.790;37.572;2023-01-15T15:08:01;15.90;;;4.72;;
20229;SDS011;12195;55.790;37.572;2023-01-15T15:13:08;8.80;;;4.33;;
20229;SDS011;12195;55.790;37.572;2023-01-15T15:15:47;15.10;;;5.00;;
20229;SDS011;12195;55.790;37.572;2023-01-15T15:18:25;11.05;;;5.00;;
20229;SDS011;12195;55.790;37.572;2023-01-15T15:21:14;13.80;;;5.05;;
20229;SDS011;12195;55.790;37.572;2023-01-15T15:26:31;6.92;;;3.95;;
20229;SDS011;12195;55.790;37.572;2023-01-15T15:31:51;13.53;;;4.85;;
20229;SDS011;12195;55.790;37.572;2023-01-15T15:34:27;10.10;;;4.90;;
20229;SDS011;12195;55.790;37.572;2023-01-15T15:37:05;16.82;;;5.25;;
20229;SDS011;12195;55.790;37.572;2023-01-15T15:39:50;10.32;;;4.25;;
20229;SDS011;12195;55.790;37.572;2023-01-15T15:42:25;10.63;;;4.65;;
20229;SDS011;12195;55.790;37.572;2023-01-15T15:45:17;8.58;;;4.37;;
20229;SDS011;12195;55.790;37.572;2023-01-15T15:51:26;8.50;;;4.78;;
20229;SDS011;12195;55.790;37.572;2023-01-15T15:54:08;9.05;;;4.58;;
20229;SDS011;12195;55.790;37.572;2023-01-15T15:56:56;10.80;;;4.25;;
20229;SDS011;12195;55.790;37.572;2023-01-15T15:59:44;6.53;;;3.30;;
20229;SDS011;12195;55.790;37.572;2023-01-15T16:02:23;13.15;;;5.15;;
20229;SDS011;12195;55.790;37.572;2023-01-15T16:07:53;11.20;;;4.80;;
20229;SDS011;12195;55.790;37.572;2023-01-15T16:10:29;7.70;;;3.92;;
20229;SDS011;12195;55.790;37.572;2023-01-15T16:13:03;11.85;;;5.08;;
20229;SDS011;12195;55.790;37.572;2023-01-15T16:15:38;14.07;;;5.37;;
20229;SDS011;12195;55.790;37.572;2023-01-15T16:18:21;13.25;;;5.60;;
20229;SDS011;12195;55.790;37.572;2023-01-15T16:20:58;13.10;;;5.95;;
20229;SDS011;12195;55.790;37.572;2023-01-15T16:23:31;12.37;;;5.22;;
20229;SDS011;12195;55.790;37.572;2023-01-15T16:26:14;9.10;;;4.53;;
20229;SDS011;12195;55.790;37.572;2023-01-15T16:28:52;11.30;;;5.58;;
20229;SDS011;12195;55.790;37.572;2023-01-15T16:31:31;12.00;;;5.37;;
20229;SDS011;12195;55.790;37.572;2023-01-15T16:34:05;11.35;;;4.58;;
20229;SDS011;12195;55.790;37.572;2023-01-15T16:36:38;6.60;;;2.98;;
20229;SDS011;12195;55.790;37.572;2023-01-15T16:39:16;11.93;;;4.47;;
20229;SDS011;12195;55.790;37.572;2023-01-15T16:41:48;9.88;;;4.78;;
20229;SDS011;12195;55.790;37.572;2023-01-15T16:44:35;8.93;;;4.58;;
20229;SDS011;12195;55.790;37.572;2023-01-15T16:47:08;10.25;;;4.60;;
20229;SDS011;12195;55.790;37.572;2023-01-15T16:49:42;11.25;;;5.05;;
20229;SDS011;12195;55.790;37.572;2023-01-15T16:55:08;7.22;;;3.30;;
20229;SDS011;12195;55.790;37.572;2023-01-15T16:58:05;14.80;;;5.03;;
20229;SDS011;12195;55.790;37.572;2023-01-15T17:00:28;11.63;;;4.75;;
20229;SDS011;12195;55.790;37.572;2023-01-15T17:03:01;12.80;;;5.40;;
20229;SDS011;12195;55.790;37.572;2023-01-15T17:05:34;12.60;;;5.55;;
20229;SDS011;12195;55.790;37.572;2023-01-15T17:08:13;20.02;;;6.65;;
20229;SDS011;12195;55.790;37.572;2023-01-15T17:13:32;11.97;;;6.67;;
20229;SDS011;12195;55.790;37.572;2023-01-15T17:18:47;22.52;;;7.62;;
20229;SDS011;12195;55.790;37.572;2023-01-15T17:21:21;14.55;;;7.37;;
20229;SDS011;12195;55.790;37.572;2023-01-15T17:23:57;15.78;;;7.70;;
20229;SDS011;12195;55.790;37.572;2023-01-15T17:26:30;16.23;;;7.12;;
20229;SDS011;12195;55.790;37.572;2023-01-15T17:29:02;15.80;;;7.25;;
20229;SDS011;12195;55.790;37.572;2023-01-15T17:31:34;15.90;;;7.40;;
20229;SDS011;12195;55.790;37.572;2023-01-15T17:34:08;15.63;;;7.50;;
20229;SDS011;12195;55.790;37.572;2023-01-15T17:36:41;13.70;;;6.60;;
20229;SDS011;12195;55.790;37.572;2023-01-15T17:39:13;22.07;;;7.53;;
20229;SDS011;12195;55.790;37.572;2023-01-15T17:41:46;21.37;;;7.72;;
20229;SDS011;12195;55.790;37.572;2023-01-15T17:44:19;18.42;;;7.70;;
20229;SDS011;12195;55.790;37.572;2023-01-15T17:46:51;15.30;;;7.12;;
20229;SDS011;12195;55.790;37.572;2023-01-15T17:49:23;19.73;;;7.30;;